Wetterdaten: Woche 04.06.18 - 10.06.18 (KW23)
Datum Zeit Temp. Aussen Temp. o. S. +5cm Feuchte Auss Luftdruck Regen Sonnenschein Regendauer Solar Windben Empfang
09.06.2018 13:00 25,3 C 26,7 C 23,3 C 73 % 1010,7 hPa 0,0 l/m 0,00 h 0,00 h 213 W/m 9,0 km/h (2 Bft) 100,00 %
09.06.2018 14:00 26,1 C 27,2 C 24,1 C 71 % 1010,4 hPa 0,0 l/m 0,00 h 0,00 h 222 W/m 7,4 km/h (2 Bft) 99,17 %
09.06.2018 15:00 26,9 C 28,2 C 24,7 C 70 % 1010,0 hPa 0,0 l/m 1,00 h 0,00 h 771 W/m 8,5 km/h (2 Bft) 98,76 %
09.06.2018 16:00 27,1 C 30,0 C 24,9 C 70 % 1009,5 hPa 0,0 l/m 0,92 h 0,00 h 637 W/m 8,8 km/h (2 Bft) 99,93 %
09.06.2018 17:00 27,3 C 28,9 C 25,4 C 69 % 1009,4 hPa 0,0 l/m 0,92 h 0,00 h 530 W/m 10,7 km/h (2 Bft) 99,93 %
09.06.2018 18:00 26,5 C 27,6 C 24,9 C 70 % 1009,2 hPa 0,0 l/m 1,00 h 0,00 h 372 W/m 11,1 km/h (2 Bft) 99,42 %
09.06.2018 19:00 25,8 C 26,4 C 24,1 C 73 % 1009,4 hPa 0,0 l/m 0,85 h 0,00 h 180 W/m 7,2 km/h (2 Bft) 97,74 %
09.06.2018 20:00 25,5 C 24,9 C 23,4 C 74 % 1009,4 hPa 0,0 l/m 0,33 h 0,00 h 78 W/m 5,6 km/h (1 Bft) 97,36 %
09.06.2018 21:00 24,8 C 23,7 C 22,5 C 77 % 1009,6 hPa 0,0 l/m 0,57 h 0,00 h 31 W/m 2,6 km/h (1 Bft) 98,87 %
09.06.2018 22:00 23,7 C 22,4 C 21,4 C 82 % 1010,1 hPa 0,0 l/m 0,00 h 0,00 h 0 W/m 0,5 km/h (0 Bft) 97,38 %
09.06.2018 23:00 22,9 C 21,3 C 20,7 C 85 % 1009,9 hPa 0,6 l/m 0,00 h 0,27 h 0 W/m 2,4 km/h (1 Bft) 96,73 %
10.06.2018 00:00 21,6 C 19,1 C 18,9 C 90 % 1010,1 hPa 0,0 l/m 0,00 h 0,00 h 0 W/m 1,8 km/h (1 Bft) 99,47 %
10.06.2018 01:00 20,7 C 18,9 C 18,5 C 92 % 1010,1 hPa 0,0 l/m 0,00 h 0,00 h 0 W/m 0,1 km/h (0 Bft) 96,09 %
10.06.2018 02:00 20,3 C 18,8 C 18,3 C 93 % 1009,8 hPa 0,0 l/m 0,00 h 0,00 h 0 W/m 1,8 km/h (1 Bft) 96,53 %
10.06.2018 03:00 19,4 C 18,1 C 17,8 C 94 % 1009,8 hPa 0,0 l/m 0,00 h 0,00 h 0 W/m 1,1 km/h (0 Bft) 99,72 %
10.06.2018 04:00 18,8 C 17,8 C 17,3 C 94 % 1009,3 hPa 0,0 l/m 0,00 h 0,00 h 0 W/m 0,0 km/h (0 Bft) 97,09 %
10.06.2018 05:00 18,4 C 17,3 C 17,1 C 95 % 1009,1 hPa 0,0 l/m 0,00 h 0,00 h 9 W/m 0,6 km/h (0 Bft) 95,72 %
10.06.2018 06:00 17,8 C 17,2 C 16,7 C 96 % 1009,0 hPa 0,0 l/m 0,00 h 0,00 h 28 W/m 2,8 km/h (1 Bft) 98,49 %
10.06.2018 07:00 17,6 C 17,8 C 16,8 C 96 % 1009,7 hPa 0,0 l/m 0,00 h 0,00 h 101 W/m 4,1 km/h (1 Bft) 97,98 %
10.06.2018 08:00 18,7 C 20,3 C 18,0 C 95 % 1010,1 hPa 0,0 l/m 0,63 h 0,00 h 208 W/m 6,0 km/h (2 Bft) 97,89 %
10.06.2018 09:00 19,3 C 19,6 C 17,8 C 91 % 1010,3 hPa 0,2 l/m 0,00 h 0,00 h 172 W/m 8,9 km/h (2 Bft) 96,78 %
10.06.2018 10:00 19,8 C 22,3 C 18,8 C 91 % 1010,2 hPa 0,0 l/m 0,07 h 0,00 h 269 W/m 6,6 km/h (2 Bft) 96,81 %
10.06.2018 11:00 22,4 C 27,8 C 20,6 C 84 % 1010,2 hPa 0,0 l/m 0,63 h 0,00 h 501 W/m 7,5 km/h (2 Bft) 99,36 %
10.06.2018 12:00 24,2 C 28,3 C 21,7 C 78 % 1010,2 hPa 0,0 l/m 0,67 h 0,00 h 576 W/m 6,9 km/h (2 Bft) 97,01 %
10.06.2018 13:00 24,7 C 27,5 C 22,7 C 75 % 1010,1 hPa 0,0 l/m 0,20 h 0,00 h 411 W/m 8,0 km/h (2 Bft) 96,16 %
10.06.2018 14:00 25,3 C 26,8 C 23,3 C 71 % 1010,1 hPa 0,0 l/m 0,10 h 0,00 h 355 W/m 10,1 km/h (2 Bft) 99,43 %
10.06.2018 15:00 25,7 C 26,9 C 23,3 C 68 % 1009,8 hPa 0,0 l/m 0,93 h 0,00 h 667 W/m 11,2 km/h (2 Bft) 96,30 %
10.06.2018 16:00 26,4 C 28,7 C 24,0 C 67 % 1009,5 hPa 0,0 l/m 1,00 h 0,00 h 723 W/m 12,6 km/h (3 Bft) 96,66 %
10.06.2018 17:00 26,2 C 26,5 C 23,8 C 65 % 1009,2 hPa 0,0 l/m 0,80 h 0,00 h 359 W/m 10,2 km/h (2 Bft) 99,33 %
10.06.2018 18:00 25,7 C 26,3 C 23,8 C 65 % 1009,0 hPa 0,0 l/m 0,97 h 0,00 h 383 W/m 10,6 km/h (2 Bft) 97,03 %
10.06.2018 19:00 25,4 C 25,2 C 23,1 C 64 % 1009,2 hPa 0,0 l/m 0,87 h 0,00 h 235 W/m 9,1 km/h (2 Bft) 97,02 %
10.06.2018 20:00 24,3 C 23,5 C 22,5 C 67 % 1009,1 hPa 0,0 l/m 0,33 h 0,00 h 70 W/m 8,3 km/h (2 Bft) 98,08 %
10.06.2018 21:00 23,2 C 22,1 C 21,4 C 71 % 1009,8 hPa 0,0 l/m 0,47 h 0,00 h 22 W/m 5,9 km/h (2 Bft) 97,87 %
10.06.2018 22:00 22,0 C 20,7 C 20,3 C 76 % 1010,4 hPa 0,0 l/m 0,00 h 0,00 h 0 W/m 5,8 km/h (2 Bft) 96,51 %
10.06.2018 23:00 20,8 C 19,5 C 19,3 C 79 % 1010,4 hPa 0,0 l/m 0,00 h 0,00 h 0 W/m 6,3 km/h (2 Bft) 97,51 %
Min-Datum _ 10.06.18 10.06.18 10.06.18 10.06.18 10.06.18 - - - - 09.06.18 10.06.18
_ Min-Zeit 07:04 06:32 05:50 19:22 06:28 - - - - 14:28 01:58
Minimum _ 17,5 C 16,7 C 16,7 C 63 % 1008,8 hPa - - - - 0,0 km/h (0 Bft) 91,30 %
Max-Datum _ 09.06.18 09.06.18 09.06.18 10.06.18 09.06.18 09.06.18 09.06.18 09.06.18 10.06.18 10.06.18 09.06.18
_ Max-Zeit 17:10 15:55 16:50 05:42 13:50 23:42 15:00 23:40 12:36 16:28 13:50
Maximum _ 27,7 C 30,6 C 25,6 C 96 % 1010,7 hPa 0,6 l/m 0,08 h 0,03 h 860 W/m 18,0 km/h
W-NW (3 Bft)
100,00 %
Durchschnitt _ 23,2 C 23,6 C 21,3 C 79 % 1009,8 hPa #0,8 l/m #13:15 h #16 min. 312 W/m 6,3 km/h (2 Bft) 97,89 %
© 2018 W. Hausmann